WetterOnline ( https://www.wetteronline.de )

Wetter aktuell Eutin

Aktuelles Wetter: Dörnick (28m)

6-stündlich | Neueste Meldungen
Ortszeit Temperatur Wetter
Di, 24.05. 20:00 13.8° C bedeckt
Di, 24.05. 14:00 16.1° C leichter Regen
Di, 24.05. 8:00 13.6° C bedeckt
Di, 24.05. 2:00 13.9° C Regen
Mo, 23.05. 20:00 20.3° C fast wolkenlos
Mo, 23.05. 14:00 20.6° C wolkig
Mo, 23.05. 8:00 13.1° C leicht bewölkt
Mo, 23.05. 2:00 9.4° C wolkig
Ortszeit Temperatur Wetter
Di, 24.05. 20:00 13.8° C bedeckt
Di, 24.05. 19:50 13.8° C bedeckt
Di, 24.05. 19:40 13.6° C bedeckt
Di, 24.05. 19:30 14.2° C Sprühregen
Di, 24.05. 19:20 14.2° C Sprühregen
Di, 24.05. 19:10 14.7° C bewölkt
Di, 24.05. 19:00 14.8° C wolkig
Di, 24.05. 18:30 15.2° C wolkig
Di, 24.05. 18:00 13.6° C bedeckt
Di, 24.05. 17:30 14.2° C leichter Regen
Di, 24.05. 17:00 16.5° C bewölkt
Ortszeit Relative Feuchte Sichtweite
Di, 24.05. 20:00 78% 65 km
Di, 24.05. 14:00 72% 40 km
Di, 24.05. 8:00 90% 25 km
Di, 24.05. 2:00 87% 8 km
Mo, 23.05. 20:00 49% 55 km
Mo, 23.05. 14:00 51% 35 km
Mo, 23.05. 8:00 73% 50 km
Mo, 23.05. 2:00 93% 45 km
Ortszeit Relative Feuchte Sichtweite
Di, 24.05. 20:00 78% 65 km
Di, 24.05. 19:50 78% -
Di, 24.05. 19:40 77% -
Di, 24.05. 19:30 79% 28 km
Di, 24.05. 19:20 79% -
Di, 24.05. 19:10 77% -
Di, 24.05. 19:00 74% 55 km
Di, 24.05. 18:30 74% 60 km
Di, 24.05. 18:00 80% 40 km
Di, 24.05. 17:30 79% 27 km
Di, 24.05. 17:00 72% 35 km
Ortszeit Niederschlagsmenge Niederschlagsart
Di, 24.05. 20:00 1 l/m2 in 12 Std. Regen
Di, 24.05. 14:00 0.1 l/m2 in 6 Std. Regen
Di, 24.05. 8:00 7 l/m2 in 12 Std. Regen
Di, 24.05. 2:00 4 l/m2 in 6 Std. Regen
Mo, 23.05. 20:00 0.0 l/m2 in 12 Std. -
Mo, 23.05. 14:00 0.0 l/m2 in 6 Std. -
Mo, 23.05. 8:00 0.0 l/m2 in 12 Std. -
Mo, 23.05. 2:00 0.0 l/m2 in 6 Std. -
Ortszeit Niederschlagsmenge Niederschlagsart
Di, 24.05. 20:00 0.1 l/m2 in 1 Std. Regen
Di, 24.05. 19:50 keine Meldung -
Di, 24.05. 19:40 keine Meldung -
Di, 24.05. 19:30 0.1 l/m2 in 1 Std. -
Di, 24.05. 19:20 keine Meldung -
Di, 24.05. 19:10 keine Meldung -
Di, 24.05. 19:00 0.1 l/m2 in 1 Std. -
Di, 24.05. 18:30 0.1 l/m2 in 1 Std. -
Di, 24.05. 18:00 0.8 l/m2 in 1 Std. Regen
Di, 24.05. 17:30 0.1 l/m2 in 1 Std. -
Di, 24.05. 17:00 0.2 l/m2 in 1 Std. Regen
Ortszeit Stärke Spitze Richtung
km/h Bft. km/h Grad Sektor
Di, 24.05. 20:00 17 3 48 250° W
Di, 24.05. 14:00 22 4 43 240° SW
Di, 24.05. 8:00 11 2 36 240° SW
Di, 24.05. 2:00 11 2 40 140° SO
Mo, 23.05. 20:00 13 3 37 110° O
Mo, 23.05. 14:00 20 4 33 150° SO
Mo, 23.05. 8:00 11 2 18 130° SO
Mo, 23.05. 2:00 4 1 14 110° O
Ortszeit Stärke Spitze Richtung
km/h Bft. km/h Grad Sektor
Di, 24.05. 20:00 17 3 33 250° W
Di, 24.05. 19:50 17 3 - 250° W
Di, 24.05. 19:40 19 3 - 250° W
Di, 24.05. 19:30 15 3 26 270° W
Di, 24.05. 19:20 15 3 - 270° W
Di, 24.05. 19:10 11 2 - 230° SW
Di, 24.05. 19:00 18 3 32 230° SW
Di, 24.05. 18:30 18 3 32 240° SW
Di, 24.05. 18:00 13 3 39 250° W
Di, 24.05. 17:30 22 4 40 270° W
Di, 24.05. 17:00 18 3 47 240° SW
Ortszeit Untergrenze Bedeckung Gattung
total tief tief mittel hoch
Di, 24.05. 20:00 1800 m 8/8 8/8 - - -
Di, 24.05. 14:00 1800 m 7/8 7/8 - - -
Di, 24.05. 8:00 360 m 8/8 8/8 - - -
Di, 24.05. 2:00 180 m 7/8 7/8 - - -
Mo, 23.05. 20:00 10500 m 2/8 0/8 - - -
Mo, 23.05. 14:00 6900 m 8/8 8/8 - - -
Mo, 23.05. 8:00 3000 m 4/8 4/8 - - -
Mo, 23.05. 2:00 7800 m 8/8 0/8 - - -
Ortszeit Bedeckungsgrad in Achtel und Wolkenuntergrenze
Di, 24.05. 20:00 8(1800m)
Di, 24.05. 19:50 8(1800m)
Di, 24.05. 19:40 8
Di, 24.05. 19:30 5(810m) 7(1440m) 8(2700m)
Di, 24.05. 19:20 5(810m) 7(1440m) 8(2700m)
Di, 24.05. 19:10 7
Di, 24.05. 19:00 2(2100m) 6(6900m) 7(9000m)
Di, 24.05. 18:30 1(2400m) 7(3300m) 7(3600m)
Di, 24.05. 18:00 1(360m) 6(1800m) 8(2400m)
Di, 24.05. 17:30 1(720m) 7(1320m) 7(1500m)
Di, 24.05. 17:00 2(990m) 7(1800m) 7(2100m)
Ortszeit Luftdruck NN (hPa) Tendenz (hPa in 3 Std.)
Di, 24.05. 20:00 1007 + 2,6
Di, 24.05. 14:00 1003 + 1,4
Di, 24.05. 8:00 1000 + 2,9
Di, 24.05. 2:00 998 - 1,2
Mo, 23.05. 20:00 1001 - 2,6
Mo, 23.05. 14:00 1006 - 2,5
Mo, 23.05. 8:00 1011 - 1,1
Mo, 23.05. 2:00 1013 - 0,9
Ortszeit Luftdruck NN (hPa) Tendenz (hPa in 3 Std.)
Di, 24.05. 20:00 1007 + 2,6
Di, 24.05. 19:50 1007 keine Meldung
Di, 24.05. 19:40 1007 keine Meldung
Di, 24.05. 19:30 1007 + 2,9
Di, 24.05. 19:20 1007 keine Meldung
Di, 24.05. 19:10 1007 keine Meldung
Di, 24.05. 19:00 1006 + 2,3
Di, 24.05. 18:30 1006 + 2,1
Di, 24.05. 18:00 1006 + 1,5
Di, 24.05. 17:30 1006 + 1,9
Di, 24.05. 17:00 1005 + 1,7
Ortszeit Schneehöhe (cm)
Di, 24.05. 20:00 0
Di, 24.05. 14:00 0
Di, 24.05. 8:00 0
Di, 24.05. 2:00 0
Mo, 23.05. 20:00 0
Mo, 23.05. 14:00 0
Mo, 23.05. 8:00 0
Mo, 23.05. 2:00 0
Ortszeit Schneehöhe (cm)
Di, 24.05. 20:00 0
Di, 24.05. 19:50 0
Di, 24.05. 19:40 0
Di, 24.05. 19:30 0
Di, 24.05. 19:20 0
Di, 24.05. 19:10 0
Di, 24.05. 19:00 0
Di, 24.05. 18:30 0
Di, 24.05. 18:00 0
Di, 24.05. 17:30 0
Di, 24.05. 17:00 0
Link zu dieser Seite / Seite empfehlen

Das Wetter in ...